Time;durP1;ratioP1;P1;durP2;ratioP2;P2;SDS_P1;SDS_P2;PMS_P1;PMS_P2;Temp;Humidity;BMP_temperature;BMP_pressure;BME280_temperature;BME280_humidity;BME280_pressure;Samples;Min_cycle;Max_cycle;Signal;HPM_P1;HPM_P2
2023/01/18 00:00:28;;;;;;;4.50;4.07;;;14.10;61.70;14.80;98226.00;;;;5034062;28;20746;-46
2023/01/18 00:02:54;;;;;;;4.50;4.10;;;14.10;61.70;14.80;98236.00;;;;5040038;28;20322;-46
2023/01/18 00:05:23;;;;;;;4.40;4.00;;;14.10;61.70;14.80;98223.00;;;;5038304;28;20183;-46
2023/01/18 00:07:51;;;;;;;4.47;4.07;;;14.10;61.70;14.80;98228.00;;;;5030706;28;20203;-48
2023/01/18 00:10:17;;;;;;;4.57;4.07;;;14.10;61.80;14.70;98224.00;;;;5031301;28;20171;-46
2023/01/18 00:12:42;;;;;;;4.80;4.30;;;14.00;61.60;14.70;98226.00;;;;5029177;28;20183;-46
2023/01/18 00:15:09;;;;;;;4.40;4.00;;;14.00;61.60;14.70;98235.00;;;;5030704;28;20824;-46
2023/01/18 00:17:46;;;;;;;4.50;4.10;;;14.00;61.70;14.70;98220.00;;;;5029906;28;20683;-45
2023/01/18 00:20:13;;;;;;;4.50;4.10;;;14.00;61.70;14.70;98200.00;;;;5030458;28;20190;-46
2023/01/18 00:22:39;;;;;;;4.47;4.07;;;13.90;61.60;14.70;98228.00;;;;5028889;28;20679;-46
2023/01/18 00:25:05;;;;;;;4.70;4.20;;;13.90;61.60;14.60;98233.00;;;;5030120;28;20175;-47
2023/01/18 00:27:30;;;;;;;4.53;4.07;;;13.90;61.70;14.60;98246.00;;;;5030432;28;20203;-46
2023/01/18 00:29:58;;;;;;;4.20;3.80;;;13.90;61.70;14.60;98241.00;;;;5030136;28;20175;-46
2023/01/18 00:32:24;;;;;;;4.97;4.07;;;13.90;61.70;14.60;98244.00;;;;5029828;28;20379;-46
2023/01/18 00:34:50;;;;;;;4.40;4.00;;;13.90;61.70;14.60;98244.00;;;;5030792;28;20571;-46
2023/01/18 00:37:15;;;;;;;4.40;4.00;;;13.90;61.70;14.60;98248.00;;;;5030534;28;20206;-53
2023/01/18 00:39:41;;;;;;;5.37;3.90;;;13.90;61.80;14.50;98245.00;;;;5030268;28;20182;-46
2023/01/18 00:44:51;;;;;;;4.43;3.97;;;13.80;61.60;14.50;98230.00;;;;5036012;28;20225;-46
2023/01/18 00:47:17;;;;;;;4.60;4.10;;;13.80;61.60;14.50;98242.00;;;;5030554;28;20198;-45
2023/01/18 00:49:43;;;;;;;4.50;4.10;;;13.80;61.80;14.50;98244.00;;;;5030348;28;20237;-46
2023/01/18 00:52:09;;;;;;;4.30;3.90;;;13.80;61.80;14.40;98239.00;;;;5029684;28;20174;-47
2023/01/18 00:54:34;;;;;;;4.50;4.10;;;13.70;61.60;14.40;98240.00;;;;5029985;28;20171;-46
2023/01/18 00:57:00;;;;;;;4.70;4.30;;;13.70;61.70;14.40;98245.00;;;;5030299;28;20659;-48
2023/01/18 00:59:26;;;;;;;4.93;4.20;;;13.70;61.70;14.40;98239.00;;;;5030339;28;20179;-47
2023/01/18 01:01:52;;;;;;;4.40;4.00;;;13.70;61.70;14.40;98255.00;;;;5029926;28;20175;-45
2023/01/18 01:07:01;;;;;;;4.37;3.97;;;13.70;61.70;14.40;98250.00;;;;5029727;28;20729;-46
2023/01/18 01:09:28;;;;;;;4.20;3.73;;;13.60;61.60;14.30;98254.00;;;;5029627;28;20179;-46
2023/01/18 01:26:09;;;;;;;4.60;3.90;;;13.50;61.70;14.20;98249.00;;;;5028617;28;20344;-45
2023/01/18 01:28:48;;;;;;;4.33;3.87;;;13.50;61.70;14.20;98245.00;;;;5029748;28;20352;-48
2023/01/18 01:31:15;;;;;;;4.23;3.73;;;13.50;61.70;14.10;98249.00;;;;5027292;28;20262;-46
2023/01/18 01:33:41;;;;;;;4.20;3.80;;;13.50;62.10;14.00;98253.00;;;;5028308;28;20167;-46
2023/01/18 01:36:10;;;;;;;4.40;4.00;;;13.50;61.70;14.10;98248.00;;;;5029470;28;20259;-46
2023/01/18 01:38:36;;;;;;;4.10;3.70;;;13.50;61.70;14.10;98255.00;;;;5028161;28;20799;-46
2023/01/18 01:41:16;;;;;;;4.40;3.80;;;13.50;61.70;14.10;98267.00;;;;5029773;28;20257;-46
2023/01/18 01:43:51;;;;;;;4.00;3.70;;;13.40;61.60;14.10;98266.00;;;;5029118;28;20179;-45
2023/01/18 01:46:31;;;;;;;4.17;3.77;;;13.40;61.70;14.10;98270.00;;;;5028147;28;20209;-49
2023/01/18 01:49:27;;;;;;;4.13;3.83;;;13.40;61.70;14.00;98262.00;;;;5028967;28;20245;-45
2023/01/18 01:52:10;;;;;;;4.13;3.80;;;13.40;61.70;14.00;98270.00;;;;5027641;28;20171;-45
2023/01/18 01:55:06;;;;;;;4.33;3.93;;;13.40;61.70;14.00;98272.00;;;;5029407;28;20201;-45
2023/01/18 01:57:43;;;;;;;4.00;3.70;;;13.40;61.70;14.00;98273.00;;;;5027884;28;20202;-46
2023/01/18 02:00:18;;;;;;;4.17;3.80;;;13.30;61.70;14.00;98275.00;;;;5027800;28;20263;-46
2023/01/18 02:02:56;;;;;;;4.07;3.67;;;13.30;61.70;13.90;98278.00;;;;5028741;28;20175;-47
2023/01/18 02:05:22;;;;;;;4.07;3.77;;;13.30;61.70;13.90;98282.00;;;;5028668;28;20248;-45
2023/01/18 02:07:47;;;;;;;4.07;3.77;;;13.30;61.70;13.90;98291.00;;;;5027561;28;20202;-46
2023/01/18 02:10:13;;;;;;;4.00;3.70;;;13.20;61.60;13.90;98293.00;;;;5028148;28;20182;-46
2023/01/18 02:12:40;;;;;;;4.13;3.73;;;13.30;61.70;13.90;98302.00;;;;5028555;28;20167;-46
2023/01/18 02:15:06;;;;;;;4.40;4.00;;;13.30;61.70;13.90;98315.00;;;;5027862;28;20179;-46
2023/01/18 02:18:08;;;;;;;4.20;3.80;;;13.20;61.70;13.90;98315.00;;;;5028830;28;20210;-47
2023/01/18 02:21:01;;;;;;;3.80;3.50;;;13.20;61.70;13.80;98310.00;;;;5032186;28;20187;-48
2023/01/18 02:24:10;;;;;;;3.97;3.67;;;13.20;61.70;13.80;98308.00;;;;5030144;28;20167;-45
2023/01/18 02:26:52;;;;;;;3.80;3.50;;;13.20;61.70;13.80;98301.00;;;;5028498;28;20222;-46
2023/01/18 02:29:46;;;;;;;4.43;3.77;;;13.20;61.90;13.80;98300.00;;;;5031278;28;20270;-46
2023/01/18 02:32:46;;;;;;;3.97;3.67;;;13.10;61.60;13.80;98298.00;;;;5030512;28;20262;-44
2023/01/18 02:35:39;;;;;;;4.20;3.80;;;13.10;61.70;13.70;98310.00;;;;5031591;28;20238;-45
2023/01/18 02:38:23;;;;;;;3.87;3.57;;;13.10;61.70;13.70;98313.00;;;;5031356;28;20206;-47
2023/01/18 02:41:02;;;;;;;4.10;3.70;;;13.10;61.70;13.70;98309.00;;;;5031708;28;20246;-45
2023/01/18 02:46:32;;;;;;;3.90;3.60;;;13.00;61.60;13.60;98318.00;;;;5045458;28;20217;-45
2023/01/18 02:49:19;;;;;;;4.10;3.60;;;13.00;61.60;13.60;98326.00;;;;5043285;28;20222;-45
2023/01/18 02:51:44;;;;;;;4.17;3.80;;;13.00;61.60;13.60;98325.00;;;;5030705;28;20159;-45
2023/01/18 02:54:10;;;;;;;4.10;3.70;;;13.00;61.60;13.60;98343.00;;;;5032530;28;20175;-46
2023/01/18 02:56:48;;;;;;;3.63;3.33;;;12.90;61.60;13.60;98332.00;;;;5031977;28;20179;-46
2023/01/18 02:59:21;;;;;;;3.70;3.40;;;12.90;61.70;13.60;98327.00;;;;5041182;28;20226;-47
2023/01/18 03:01:57;;;;;;;4.23;3.83;;;12.90;61.70;13.60;98323.00;;;;5042728;28;20198;-46
2023/01/18 03:04:29;;;;;;;3.80;3.50;;;12.90;61.70;13.60;98324.00;;;;5038027;28;20223;-45
2023/01/18 03:07:07;;;;;;;3.73;3.43;;;12.90;61.70;13.60;98329.00;;;;5030800;28;20644;-45
2023/01/18 03:09:33;;;;;;;3.97;3.57;;;12.90;61.70;13.50;98327.00;;;;5030707;28;20174;-46
2023/01/18 03:12:14;;;;;;;3.50;3.20;;;12.90;61.80;13.50;98340.00;;;;5030627;28;20171;-46
2023/01/18 03:14:40;;;;;;;4.07;3.67;;;12.80;61.70;13.50;98335.00;;;;5031150;28;20230;-46
2023/01/18 03:17:13;;;;;;;3.80;3.50;;;12.90;61.80;13.50;98332.00;;;;5031511;28;20278;-46
2023/01/18 03:20:07;;;;;;;3.87;3.43;;;12.80;61.70;13.50;98336.00;;;;5014217;28;20190;-46
2023/01/18 03:25:36;;;;;;;3.80;3.50;;;12.80;61.80;13.40;98343.00;;;;5030821;28;20167;-46
2023/01/18 03:33:43;;;;;;;3.87;3.57;;;12.80;61.70;13.40;98340.00;;;;5030017;28;20162;-45
2023/01/18 03:36:25;;;;;;;3.70;3.40;;;12.70;61.60;13.40;98344.00;;;;5030287;28;20147;-46
2023/01/18 03:39:09;;;;;;;4.00;3.60;;;12.70;61.60;13.40;98345.00;;;;5029433;28;20195;-46
2023/01/18 03:41:38;;;;;;;3.50;3.20;;;12.70;61.60;13.30;98345.00;;;;5029822;28;20159;-45
2023/01/18 03:44:10;;;;;;;3.77;3.47;;;12.70;61.60;13.30;98354.00;;;;5029955;28;20246;-47
2023/01/18 03:46:36;;;;;;;3.77;3.47;;;12.70;61.60;13.30;98353.00;;;;5030319;28;20267;-45
2023/01/18 03:49:02;;;;;;;3.60;3.30;;;12.60;61.50;13.30;98362.00;;;;5030419;28;20285;-46
2023/01/18 03:51:51;;;;;;;4.00;3.60;;;12.70;61.60;13.30;98362.00;;;;5038288;28;20765;-45
2023/01/18 03:55:04;;;;;;;3.60;3.30;;;12.70;61.70;13.30;98359.00;;;;5030019;28;20255;-46
2023/01/18 03:57:39;;;;;;;3.97;3.67;;;12.60;61.50;13.20;98354.00;;;;5029692;28;20289;-47
2023/01/18 04:00:07;;;;;;;3.80;3.50;;;12.60;61.50;13.20;98369.00;;;;5030170;28;20620;-46
2023/01/18 04:02:32;;;;;;;3.90;3.60;;;12.60;61.50;13.20;98369.00;;;;5029522;28;20226;-46
2023/01/18 04:05:02;;;;;;;3.73;3.43;;;12.50;61.40;13.20;98376.00;;;;5030987;28;20559;-46
2023/01/18 04:07:30;;;;;;;3.60;3.30;;;12.60;61.50;13.20;98381.00;;;;5030939;28;20210;-45
2023/01/18 04:09:57;;;;;;;3.33;3.07;;;12.50;61.40;13.20;98378.00;;;;5031093;28;20186;-46
2023/01/18 04:12:22;;;;;;;3.70;3.40;;;12.50;61.40;13.20;98395.00;;;;5030710;28;20183;-45
2023/01/18 04:14:48;;;;;;;3.57;3.27;;;12.50;61.40;13.10;98386.00;;;;5030580;28;20245;-46
2023/01/18 04:17:14;;;;;;;3.63;3.33;;;12.50;61.40;13.10;98387.00;;;;5030231;28;20770;-45
2023/01/18 04:19:39;;;;;;;3.70;3.40;;;12.50;61.40;13.10;98393.00;;;;5030042;28;20190;-46
2023/01/18 04:22:06;;;;;;;3.80;3.50;;;12.50;61.50;13.10;98405.00;;;;5029790;28;20314;-46
2023/01/18 04:24:32;;;;;;;3.73;3.43;;;12.40;61.30;13.10;98398.00;;;;5029367;28;20202;-46
2023/01/18 04:26:57;;;;;;;3.77;3.43;;;12.40;61.30;13.10;98400.00;;;;5030664;28;20233;-46
2023/01/18 04:29:23;;;;;;;3.80;3.50;;;12.40;62.10;13.10;98389.00;;;;5029960;28;20374;-46
2023/01/18 04:31:49;;;;;;;3.90;3.50;;;12.40;61.30;13.00;98398.00;;;;5030056;28;20186;-46
2023/01/18 04:34:15;;;;;;;4.40;3.40;;;12.40;61.30;13.00;98401.00;;;;5030196;28;20191;-45
2023/01/18 04:36:40;;;;;;;4.30;3.23;;;12.40;61.30;13.00;98401.00;;;;5030618;28;20163;-46
2023/01/18 04:39:06;;;;;;;7.47;3.37;;;12.40;61.50;13.00;98405.00;;;;5019305;28;20191;-46
2023/01/18 04:41:32;;;;;;;7.63;3.53;;;12.40;61.30;13.00;98401.00;;;;5009219;28;20602;-46
2023/01/18 04:43:58;;;;;;;7.13;3.63;;;12.40;61.40;13.00;98403.00;;;;5010079;28;20188;-46
2023/01/18 04:46:23;;;;;;;6.73;3.53;;;12.40;61.50;13.00;98405.00;;;;5010588;28;20186;-45
2023/01/18 04:48:50;;;;;;;5.80;3.40;;;12.30;61.60;13.00;98404.00;;;;5010412;28;20784;-46
2023/01/18 04:51:16;;;;;;;6.07;3.87;;;12.30;61.70;13.00;98409.00;;;;4992008;28;20262;-46
2023/01/18 04:53:42;;;;;;;5.73;3.60;;;12.30;61.70;13.00;98418.00;;;;5010025;28;20267;-45
2023/01/18 04:56:08;;;;;;;7.10;3.53;;;12.30;61.70;12.90;98421.00;;;;5013717;28;20163;-46
2023/01/18 04:58:33;;;;;;;6.50;3.40;;;12.30;61.70;12.90;98424.00;;;;4995195;28;20203;-45
2023/01/18 05:01:03;;;;;;;8.80;3.60;;;12.20;61.70;12.90;98424.00;;;;5009139;28;20199;-45
2023/01/18 05:03:30;;;;;;;3.50;3.20;;;12.30;61.70;12.90;98432.00;;;;5009181;28;20164;-46
2023/01/18 05:05:56;;;;;;;4.17;3.47;;;12.30;61.70;12.90;98436.00;;;;5009413;28;20191;-46
2023/01/18 05:08:22;;;;;;;3.30;3.00;;;12.20;61.70;12.90;98445.00;;;;5009054;28;20229;-46
2023/01/18 05:10:48;;;;;;;4.77;3.20;;;12.20;61.70;12.90;98447.00;;;;5008332;28;20198;-46
2023/01/18 05:13:13;;;;;;;4.60;3.37;;;12.20;62.50;12.80;98445.00;;;;5009578;28;20203;-46
2023/01/18 05:15:39;;;;;;;5.10;3.00;;;12.20;61.70;12.80;98448.00;;;;5019088;28;20186;-46
2023/01/18 05:18:06;;;;;;;3.70;3.30;;;12.20;62.10;12.80;98445.00;;;;5028557;28;20199;-46
2023/01/18 05:20:31;;;;;;;3.77;3.40;;;12.20;61.70;12.80;98455.00;;;;5029144;28;20186;-46
2023/01/18 05:22:57;;;;;;;4.40;3.50;;;12.10;61.50;12.80;98459.00;;;;5033934;28;20557;-46
2023/01/18 05:25:23;;;;;;;4.63;3.50;;;12.20;61.50;12.80;98460.00;;;;5032681;28;20163;-46
2023/01/18 05:27:49;;;;;;;3.90;3.60;;;12.10;61.30;12.80;98478.00;;;;5029789;28;20257;-46
2023/01/18 05:30:15;;;;;;;6.63;3.80;;;12.10;61.10;12.70;98469.00;;;;5044160;28;20182;-46
2023/01/18 05:32:41;;;;;;;6.57;4.07;;;12.10;61.00;12.70;98468.00;;;;5039920;28;20632;-46
2023/01/18 05:35:07;;;;;;;7.30;4.37;;;12.00;60.90;12.70;98471.00;;;;5030482;28;20167;-47
2023/01/18 05:37:32;;;;;;;7.83;4.30;;;12.10;61.00;12.70;98469.00;;;;5035536;28;20257;-46
2023/01/18 05:39:58;;;;;;;5.93;4.30;;;12.00;60.90;12.70;98472.00;;;;5031217;28;20638;-46
2023/01/18 05:42:24;;;;;;;5.60;4.70;;;12.00;60.90;12.70;98483.00;;;;5029661;28;20178;-46
2023/01/18 05:44:50;;;;;;;5.70;4.53;;;12.00;60.90;12.60;98482.00;;;;5029585;28;20229;-46
2023/01/18 05:47:15;;;;;;;5.63;4.60;;;11.90;60.70;12.60;98486.00;;;;5029089;28;20257;-46
2023/01/18 05:49:41;;;;;;;9.47;5.07;;;11.90;60.70;12.60;98492.00;;;;5029862;28;20193;-47
2023/01/18 05:52:07;;;;;;;9.77;5.17;;;11.90;60.70;12.60;98497.00;;;;5029162;28;20467;-46
2023/01/18 05:54:33;;;;;;;14.97;5.60;;;11.90;60.50;12.60;98501.00;;;;5029815;28;20175;-46
2023/01/18 05:56:59;;;;;;;12.43;5.97;;;11.90;60.50;12.60;98509.00;;;;5029703;28;20195;-46
2023/01/18 05:59:24;;;;;;;16.50;6.13;;;11.90;60.30;12.50;98509.00;;;;5029324;28;20849;-46
2023/01/18 06:01:50;;;;;;;15.47;5.93;;;11.90;60.30;12.50;98518.00;;;;5030689;28;20220;-46
2023/01/18 06:04:16;;;;;;;12.23;5.70;;;11.90;60.10;12.60;98516.00;;;;5033657;28;20175;-46
2023/01/18 06:06:42;;;;;;;9.60;5.63;;;11.90;60.20;12.50;98513.00;;;;5033049;28;20254;-46
2023/01/18 06:09:07;;;;;;;9.60;5.47;;;11.80;60.00;12.50;98519.00;;;;5033214;28;20214;-46
2023/01/18 06:11:33;;;;;;;13.63;5.43;;;11.90;60.10;12.50;98529.00;;;;5032368;28;20175;-46
2023/01/18 06:13:59;;;;;;;12.70;5.70;;;11.90;60.30;12.50;98539.00;;;;5032960;28;20167;-46
2023/01/18 06:16:24;;;;;;;10.87;5.70;;;11.90;60.50;12.50;98545.00;;;;5033282;28;20551;-45
2023/01/18 06:18:50;;;;;;;12.20;5.70;;;11.90;60.70;12.50;98536.00;;;;5033198;28;20193;-45
2023/01/18 06:21:16;;;;;;;8.30;5.30;;;11.90;60.70;12.60;98543.00;;;;5031685;28;20191;-47
2023/01/18 06:23:42;;;;;;;8.87;5.20;;;12.00;60.90;12.60;98553.00;;;;5032592;28;20175;-45
2023/01/18 06:26:08;;;;;;;10.10;5.43;;;12.00;60.90;12.60;98565.00;;;;5034320;28;20179;-45
2023/01/18 06:28:33;;;;;;;10.13;5.17;;;12.10;61.00;12.70;98559.00;;;;5034552;28;20210;-47
2023/01/18 06:31:03;;;;;;;7.80;4.87;;;12.10;61.00;12.70;98560.00;;;;5032514;28;20555;-47
2023/01/18 06:33:29;;;;;;;8.83;4.83;;;12.10;61.00;12.80;98570.00;;;;5032496;28;20270;-45
2023/01/18 06:35:54;;;;;;;9.17;4.80;;;12.20;61.10;12.90;98569.00;;;;5032238;28;20171;-47
2023/01/18 06:38:20;;;;;;;7.10;4.60;;;12.30;61.30;12.90;98568.00;;;;5032451;28;20198;-46
2023/01/18 06:40:46;;;;;;;10.07;4.50;;;12.40;61.50;13.00;98569.00;;;;5032010;28;20171;-47
2023/01/18 06:43:12;;;;;;;8.03;4.40;;;12.50;61.50;13.10;98573.00;;;;5031962;28;20191;-45
2023/01/18 06:45:39;;;;;;;7.77;4.13;;;12.60;61.50;13.20;98570.00;;;;5032398;28;20230;-46
2023/01/18 06:48:05;;;;;;;7.03;4.23;;;12.60;61.50;13.30;98568.00;;;;5032430;28;20614;-45
2023/01/18 06:50:31;;;;;;;6.63;4.70;;;12.70;61.60;13.30;98572.00;;;;5030818;28;20175;-46
2023/01/18 06:52:56;;;;;;;6.57;4.07;;;12.80;61.70;13.40;98571.00;;;;5030758;28;20199;-46
2023/01/18 06:55:22;;;;;;;5.63;3.90;;;12.90;61.80;13.50;98581.00;;;;5032802;28;20175;-45
2023/01/18 06:57:48;;;;;;;5.40;4.13;;;13.00;61.90;13.60;98599.00;;;;5031957;28;20544;-45
2023/01/18 07:00:15;;;;;;;5.63;4.20;;;13.10;62.00;13.70;98591.00;;;;5031942;28;20175;-47
2023/01/18 07:02:41;;;;;;;5.13;4.03;;;13.10;62.10;13.80;98600.00;;;;5033674;28;20174;-46
2023/01/18 07:05:07;;;;;;;8.00;4.20;;;13.20;62.90;13.80;98598.00;;;;5032254;28;20735;-46
2023/01/18 07:07:33;;;;;;;5.60;3.97;;;13.30;62.30;13.90;98600.00;;;;5031734;28;20202;-46
2023/01/18 07:09:58;;;;;;;6.50;3.90;;;13.40;62.40;14.00;98604.00;;;;5031758;28;20169;-47
2023/01/18 07:12:24;;;;;;;5.77;3.80;;;13.40;62.30;14.10;98595.00;;;;5029922;28;20171;-47
2023/01/18 07:14:50;;;;;;;4.83;3.83;;;13.50;62.30;14.10;98599.00;;;;5033850;28;20203;-48
2023/01/18 07:17:16;;;;;;;4.10;3.70;;;13.60;62.40;14.20;98596.00;;;;5041005;28;20202;-46
2023/01/18 07:19:43;;;;;;;5.63;3.93;;;13.60;62.30;14.30;98606.00;;;;5041084;28;20610;-46
2023/01/18 07:22:09;;;;;;;4.27;3.73;;;13.70;62.30;14.20;98620.00;;;;5035321;28;20151;-49
2023/01/18 07:24:34;;;;;;;6.30;4.20;;;13.70;62.30;14.40;98614.00;;;;5031899;28;20198;-46
2023/01/18 07:27:00;;;;;;;4.70;3.30;;;13.80;62.30;14.50;98615.00;;;;5031756;28;20286;-46
2023/01/18 07:29:26;;;;;;;4.57;3.60;;;13.80;62.30;14.50;98628.00;;;;5030989;28;20203;-46
2023/01/18 07:31:52;;;;;;;4.23;3.63;;;13.90;62.30;14.60;98636.00;;;;5029666;28;20590;-45
2023/01/18 07:34:18;;;;;;;4.03;3.63;;;13.90;62.30;14.60;98624.00;;;;5030653;28;20167;-45
2023/01/18 07:36:43;;;;;;;4.20;3.60;;;14.00;62.30;14.70;98640.00;;;;5030807;28;20174;-46
2023/01/18 07:39:09;;;;;;;4.10;3.60;;;14.00;62.30;14.70;98637.00;;;;5032555;28;20199;-45
2023/01/18 07:41:35;;;;;;;4.73;3.77;;;14.10;62.30;14.80;98635.00;;;;5030809;28;20178;-45
2023/01/18 07:44:01;;;;;;;4.53;3.70;;;14.10;62.20;14.90;98646.00;;;;5031305;28;20249;-46
2023/01/18 07:46:27;;;;;;;4.90;3.50;;;14.20;62.30;14.90;98642.00;;;;5031757;28;20246;-46
2023/01/18 07:48:52;;;;;;;3.97;3.57;;;14.20;62.30;15.00;98645.00;;;;5031771;28;20301;-46
2023/01/18 07:51:19;;;;;;;4.30;3.50;;;14.30;62.30;15.00;98648.00;;;;5030976;28;20258;-46
2023/01/18 07:53:45;;;;;;;5.87;3.70;;;14.30;62.20;15.10;98656.00;;;;5031876;28;20175;-46
2023/01/18 07:56:16;;;;;;;5.67;3.67;;;14.40;62.30;15.10;98664.00;;;;5031763;28;20174;-47
2023/01/18 07:58:42;;;;;;;5.33;3.33;;;14.50;62.30;15.20;98670.00;;;;5030895;28;20195;-46
2023/01/18 08:01:19;;;;;;;3.47;3.17;;;14.50;62.30;15.20;98660.00;;;;5031333;28;20167;-46
2023/01/18 08:03:46;;;;;;;4.17;3.37;;;14.50;62.20;15.20;98673.00;;;;5030690;28;20167;-48
2023/01/18 08:06:12;;;;;;;37.90;6.07;;;14.60;62.40;15.30;98685.00;;;;5029477;28;20171;-45
2023/01/18 08:08:38;;;;;;;21.77;4.80;;;14.60;63.20;15.30;98678.00;;;;5030846;28;20210;-46
2023/01/18 08:11:05;;;;;;;19.40;4.53;;;14.60;63.20;15.30;98692.00;;;;5028456;28;20177;-45
2023/01/18 08:13:32;;;;;;;10.67;4.13;;;14.60;63.60;15.30;98702.00;;;;5041980;28;20207;-47
2023/01/18 08:15:59;;;;;;;12.40;3.90;;;14.60;63.60;15.30;98689.00;;;;5038796;28;20164;-46
2023/01/18 08:18:25;;;;;;;10.50;3.70;;;14.60;63.60;15.40;98696.00;;;;5031014;28;20201;-46
2023/01/18 08:20:51;;;;;;;13.30;3.90;;;14.60;63.60;15.40;98709.00;;;;5030956;28;20201;-46
2023/01/18 08:23:16;;;;;;;14.90;3.87;;;14.70;63.50;15.40;98717.00;;;;5033709;28;20182;-46
2023/01/18 08:25:42;;;;;;;6.63;3.50;;;14.80;63.40;15.50;98714.00;;;;5035583;28;20174;-46
2023/01/18 08:28:08;;;;;;;10.90;3.70;;;14.80;63.10;15.50;98720.00;;;;5031001;28;20278;-47
2023/01/18 08:30:37;;;;;;;10.60;4.10;;;14.80;63.00;15.50;98722.00;;;;5029921;28;20644;-46
2023/01/18 08:33:04;;;;;;;11.13;3.50;;;14.90;63.00;15.60;98719.00;;;;5030521;28;20629;-46
2023/01/18 08:35:52;;;;;;;8.13;3.80;;;14.90;63.00;15.60;98656.00;;;;5030654;28;20250;-46
2023/01/18 08:38:17;;;;;;;5.27;3.57;;;14.90;63.10;15.60;98741.00;;;;5031082;28;20595;-46
2023/01/18 08:40:43;;;;;;;10.97;3.90;;;14.90;63.00;15.70;98735.00;;;;5030786;28;20182;-46
2023/01/18 08:43:10;;;;;;;7.13;3.80;;;15.00;63.00;15.70;98744.00;;;;5030447;28;20175;-47
2023/01/18 08:45:36;;;;;;;6.73;3.87;;;15.00;63.10;15.70;98736.00;;;;5030945;28;20672;-46
2023/01/18 08:48:04;;;;;;;7.30;3.50;;;15.10;63.20;15.80;98744.00;;;;5030631;28;20249;-47
2023/01/18 08:50:31;;;;;;;6.77;3.70;;;15.10;63.30;15.80;98749.00;;;;5029825;28;20644;-46
2023/01/18 08:52:58;;;;;;;8.20;3.90;;;15.20;63.20;15.80;98747.00;;;;5029543;28;20171;-50
2023/01/18 08:55:24;;;;;;;6.53;3.20;;;15.20;63.10;15.90;98705.00;;;;5030397;28;20170;-47
2023/01/18 08:57:53;;;;;;;7.60;3.93;;;15.20;63.30;15.90;98755.00;;;;5030402;28;20202;-47
2023/01/18 09:00:22;;;;;;;6.60;3.80;;;15.30;63.30;16.00;98762.00;;;;5029203;28;20243;-46
2023/01/18 09:02:48;;;;;;;7.83;3.57;;;15.30;63.20;16.00;98774.00;;;;5029609;28;20564;-46
2023/01/18 09:05:13;;;;;;;7.90;3.63;;;15.40;63.30;16.00;98777.00;;;;5029320;28;20175;-47
2023/01/18 09:07:39;;;;;;;12.07;3.57;;;15.30;63.20;16.00;98772.00;;;;5029821;28;20234;-45
2023/01/18 09:10:07;;;;;;;10.20;3.40;;;15.30;63.10;16.00;98786.00;;;;5029965;28;20553;-46
2023/01/18 09:12:34;;;;;;;8.80;3.70;;;15.30;63.20;16.00;98782.00;;;;5029568;28;20545;-46
2023/01/18 09:15:00;;;;;;;8.07;3.43;;;15.30;63.20;16.00;98791.00;;;;5030224;28;20175;-46
2023/01/18 09:17:26;;;;;;;9.50;3.50;;;15.40;63.20;16.00;98806.00;;;;5027977;28;20680;-47
2023/01/18 09:19:53;;;;;;;6.63;3.60;;;15.40;63.60;16.00;98807.00;;;;5029676;28;20194;-46
2023/01/18 09:22:19;;;;;;;7.83;3.50;;;15.40;63.60;16.00;98795.00;;;;5029793;28;20264;-46
2023/01/18 09:24:45;;;;;;;14.43;3.70;;;15.40;63.30;16.10;98802.00;;;;5029985;28;20175;-46
2023/01/18 09:27:10;;;;;;;6.17;3.40;;;15.40;63.30;16.10;98764.00;;;;5030094;28;20190;-46
2023/01/18 09:29:36;;;;;;;10.60;3.70;;;15.40;63.20;16.10;98807.00;;;;5026790;28;20747;-45
2023/01/18 09:32:02;;;;;;;6.67;3.80;;;15.40;63.20;16.10;98805.00;;;;5029578;28;20186;-46
2023/01/18 09:34:28;;;;;;;7.33;3.80;;;15.50;63.10;16.10;98814.00;;;;5030279;28;20662;-46
2023/01/18 09:36:53;;;;;;;7.60;3.83;;;15.50;62.90;16.10;98821.00;;;;5029519;28;20225;-46
2023/01/18 09:39:20;;;;;;;6.70;3.70;;;15.50;62.80;16.10;98817.00;;;;5029658;28;20228;-46
2023/01/18 09:42:00;;;;;;;7.00;3.67;;;15.60;62.70;16.20;98831.00;;;;5029110;28;20245;-46
2023/01/18 09:44:37;;;;;;;6.47;3.40;;;15.60;62.60;16.20;98828.00;;;;5028349;28;20166;-45
2023/01/18 09:47:23;;;;;;;6.60;3.60;;;15.60;62.60;16.20;98831.00;;;;5030036;28;20568;-45
2023/01/18 09:49:57;;;;;;;6.00;3.70;;;15.70;62.60;16.20;98840.00;;;;5029044;28;20512;-45
2023/01/18 09:52:45;;;;;;;5.97;3.40;;;15.70;62.50;16.30;98827.00;;;;5029377;28;20171;-46
2023/01/18 09:55:51;;;;;;;6.43;3.60;;;15.70;62.40;16.30;98821.00;;;;5027817;28;20250;-47
2023/01/18 09:58:42;;;;;;;5.97;3.80;;;15.80;62.50;16.30;98830.00;;;;5029927;28;20212;-45
2023/01/18 10:01:15;;;;;;;8.60;3.60;;;15.80;62.40;16.40;98827.00;;;;5039822;28;20182;-46
2023/01/18 10:04:16;;;;;;;6.57;3.40;;;15.90;62.40;16.40;98834.00;;;;5028581;28;20156;-46
2023/01/18 10:07:13;;;;;;;5.77;3.70;;;15.90;62.70;16.50;98837.00;;;;5028309;28;20654;-45
2023/01/18 10:09:48;;;;;;;5.37;3.60;;;15.90;63.60;16.50;98851.00;;;;5024359;28;20257;-46
2023/01/18 10:12:39;;;;;;;6.03;3.77;;;15.90;64.80;16.50;98851.00;;;;5029553;28;20670;-46
2023/01/18 10:15:16;;;;;;;5.47;3.70;;;16.00;65.10;16.60;98849.00;;;;5028076;28;20254;-48
2023/01/18 10:17:42;;;;;;;9.30;3.73;;;16.00;65.20;16.60;98837.00;;;;5010138;28;20685;-46
2023/01/18 10:20:49;;;;;;;11.10;3.80;;;16.00;65.40;16.70;98843.00;;;;5011861;28;20195;-45
2023/01/18 10:23:33;;;;;;;7.53;3.90;;;16.10;66.10;16.70;98842.00;;;;5027964;28;20183;-46
2023/01/18 10:26:15;;;;;;;8.50;3.80;;;16.10;66.30;16.70;98859.00;;;;5028659;28;20152;-47
2023/01/18 10:29:00;;;;;;;7.20;3.97;;;16.10;66.70;16.70;98851.00;;;;5027657;28;20218;-46
2023/01/18 10:31:35;;;;;;;6.03;3.40;;;16.10;66.60;16.80;98850.00;;;;5027409;28;20155;-45
2023/01/18 10:34:03;;;;;;;10.03;3.70;;;16.20;66.60;16.80;98849.00;;;;5028954;28;20163;-47
2023/01/18 10:36:32;;;;;;;6.97;3.50;;;16.20;66.60;16.80;98855.00;;;;5028716;28;20259;-45
2023/01/18 10:39:01;;;;;;;6.77;3.60;;;16.20;66.50;16.80;98858.00;;;;5033925;28;20206;-46
2023/01/18 10:41:36;;;;;;;6.43;3.70;;;16.20;66.50;16.80;98852.00;;;;5034194;28;20175;-46
2023/01/18 10:44:02;;;;;;;8.43;3.60;;;16.20;66.50;16.80;98856.00;;;;5027475;28;20682;-46
2023/01/18 10:46:28;;;;;;;4.93;3.50;;;16.20;66.40;16.80;98855.00;;;;5029146;28;20175;-46
2023/01/18 10:48:55;;;;;;;7.50;3.90;;;16.20;66.40;16.80;98859.00;;;;5031344;28;20197;-45
2023/01/18 10:51:43;;;;;;;8.87;4.00;;;16.20;66.50;16.90;98861.00;;;;5032324;28;20576;-45
2023/01/18 10:54:18;;;;;;;3.57;3.20;;;16.20;66.50;16.90;98873.00;;;;5031509;28;20214;-46
2023/01/18 10:56:43;;;;;;;4.83;3.43;;;16.20;66.40;16.80;98874.00;;;;5033550;28;20175;-46
2023/01/18 10:59:29;;;;;;;6.23;3.67;;;16.20;66.40;16.90;98861.00;;;;5041394;28;20262;-47
2023/01/18 11:01:56;;;;;;;5.93;3.63;;;16.20;66.40;16.90;98868.00;;;;5034168;28;20161;-47
2023/01/18 11:04:28;;;;;;;5.57;3.60;;;16.30;66.60;16.90;98882.00;;;;5032761;28;20175;-45
2023/01/18 11:06:57;;;;;;;6.27;3.73;;;16.20;66.00;16.90;98885.00;;;;5033345;28;20210;-46
2023/01/18 11:09:40;;;;;;;5.13;3.60;;;16.30;65.90;17.00;98875.00;;;;5030821;28;20282;-48
2023/01/18 11:12:42;;;;;;;6.43;3.77;;;16.30;65.50;17.00;98884.00;;;;5031287;28;21080;-47
2023/01/18 11:15:13;;;;;;;4.40;3.60;;;16.30;65.10;17.00;98890.00;;;;5031303;28;20243;-46
2023/01/18 11:17:41;;;;;;;5.77;3.90;;;16.40;64.90;17.00;98894.00;;;;5030673;28;20190;-46
2023/01/18 11:20:28;;;;;;;6.63;3.67;;;16.40;64.70;17.10;98884.00;;;;5033116;28;20727;-46
2023/01/18 11:22:59;;;;;;;6.90;4.00;;;16.50;65.10;17.10;98888.00;;;;5032565;28;20700;-45
2023/01/18 11:25:37;;;;;;;6.10;3.50;;;16.50;65.10;17.10;98882.00;;;;5031497;28;20241;-46
2023/01/18 11:28:06;;;;;;;5.63;3.90;;;16.60;65.40;17.20;98875.00;;;;5029475;28;20290;-46
2023/01/18 11:30:31;;;;;;;5.43;3.53;;;16.60;65.30;17.20;98883.00;;;;5030974;28;20174;-46
2023/01/18 11:32:58;;;;;;;7.93;3.60;;;16.60;65.30;17.20;98888.00;;;;5032270;28;20262;-46
2023/01/18 11:35:32;;;;;;;5.97;3.60;;;16.60;65.30;17.30;98891.00;;;;5020089;28;20268;-46
2023/01/18 11:37:59;;;;;;;5.63;3.50;;;16.60;65.40;17.30;98894.00;;;;5019208;28;20191;-47